Aviation Digital Data Service (ADDS)

Output produced by TAFs form (0331 UTC 28 June 2017)
found at http://www.aviationweather.gov/adds/tafs/
 
METAR text: WSSL 280300Z 17005KT 090V210 9999 FEW020 BKN300 31/24 Q1011 RMK 0230Z Q1011
Conditions at: WSSL (SINGAPORE/SELETA, SG) observed 0300 UTC 28 June 2017
Temperature: 31.0°C (88°F)
Dewpoint: 24.0°C (75°F) [RH = 66%]
Pressure (altimeter): 29.85 inches Hg (1011.0 mb)
Winds: from the S (170 degrees) at 6 MPH (5 knots; 2.6 m/s)
Visibility: 6 or more miles (10+ km)
Ceiling: 30000 feet AGL
Clouds: few clouds at 2000 feet AGL
broken clouds at 30000 feet AGL
Weather: no significant weather observed at this time

Forecast for: WSSL (SINGAPORE/SELETA, SG)
Text: TAF WSSL 272300Z 2800/2906 15007KT 9999 FEW018CB SCT020
Forecast period: 0000 UTC 28 June 2017 to 0600 UTC 29 June 2017
Forecast type: FROM: standard forecast or significant change
Winds: from the SSE (150 degrees) at 8 MPH (7 knots; 3.6 m/s)
Visibility: 6 or more miles (10+ km)
Clouds: few clouds at 1800 feet AGL
scattered clouds at 2000 feet AGL
Weather: no significant weather forecast for this period
Text: TEMPO 2805/2809 3000 TSRA FEW012CB BKN015
Forecast period: 0500 to 0900 UTC 28 June 2017
Forecast type: TEMPORARY: The following changes expected for less than half the time period
Visibility: 1.86 miles (2.99 km)
Ceiling: 1500 feet AGL
Clouds: few clouds at 1200 feet AGL
broken clouds at 1500 feet AGL
Weather: TSRA  (rain associated with thunderstorm(s))